sensor_id;sensor_type;location;lat;lon;timestamp;P1;durP1;ratioP1;P2;durP2;ratioP2
12222;SDS011;6174;49.058;8.524;2024-02-23T06:01:33;1.30;;;0.90;;
12222;SDS011;6174;49.058;8.524;2024-02-23T06:04:34;2.47;;;1.53;;
12222;SDS011;6174;49.058;8.524;2024-02-23T06:07:04;2.00;;;1.30;;
12222;SDS011;6174;49.058;8.524;2024-02-23T06:09:31;1.80;;;1.10;;
12222;SDS011;6174;49.058;8.524;2024-02-23T06:12:12;2.97;;;1.43;;
12222;SDS011;6174;49.058;8.524;2024-02-23T06:15:10;1.97;;;1.23;;
12222;SDS011;6174;49.058;8.524;2024-02-23T06:18:09;1.50;;;1.10;;
12222;SDS011;6174;49.058;8.524;2024-02-23T06:20:36;2.20;;;1.17;;
12222;SDS011;6174;49.058;8.524;2024-02-23T06:23:04;2.80;;;1.30;;
12222;SDS011;6174;49.058;8.524;2024-02-23T06:25:30;2.87;;;1.10;;
12222;SDS011;6174;49.058;8.524;2024-02-23T06:27:57;1.93;;;1.00;;
12222;SDS011;6174;49.058;8.524;2024-02-23T06:30:24;2.93;;;1.20;;
12222;SDS011;6174;49.058;8.524;2024-02-23T06:32:51;2.17;;;1.20;;
12222;SDS011;6174;49.058;8.524;2024-02-23T06:35:19;1.70;;;1.20;;
12222;SDS011;6174;49.058;8.524;2024-02-23T06:37:47;1.90;;;1.10;;
12222;SDS011;6174;49.058;8.524;2024-02-23T06:40:13;3.73;;;1.00;;
12222;SDS011;6174;49.058;8.524;2024-02-23T06:42:40;1.10;;;1.00;;
12222;SDS011;6174;49.058;8.524;2024-02-23T06:45:07;2.50;;;1.00;;
12222;SDS011;6174;49.058;8.524;2024-02-23T06:47:35;2.83;;;1.20;;
12222;SDS011;6174;49.058;8.524;2024-02-23T06:50:01;2.50;;;0.83;;
12222;SDS011;6174;49.058;8.524;2024-02-23T06:52:31;1.93;;;0.90;;
12222;SDS011;6174;49.058;8.524;2024-02-23T06:54:58;2.33;;;1.03;;
12222;SDS011;6174;49.058;8.524;2024-02-23T06:57:25;2.67;;;1.47;;
12222;SDS011;6174;49.058;8.524;2024-02-23T06:59:52;1.77;;;0.60;;
12222;SDS011;6174;49.058;8.524;2024-02-23T07:02:18;2.67;;;0.97;;
12222;SDS011;6174;49.058;8.524;2024-02-23T07:04:45;1.53;;;1.00;;
12222;SDS011;6174;49.058;8.524;2024-02-23T07:07:12;2.67;;;1.03;;
12222;SDS011;6174;49.058;8.524;2024-02-23T07:09:40;1.00;;;0.80;;
12222;SDS011;6174;49.058;8.524;2024-02-23T07:12:07;1.50;;;0.90;;
12222;SDS011;6174;49.058;8.524;2024-02-23T07:14:36;3.63;;;1.60;;
12222;SDS011;6174;49.058;8.524;2024-02-23T07:17:03;3.97;;;2.00;;
12222;SDS011;6174;49.058;8.524;2024-02-23T07:19:30;1.57;;;1.10;;
12222;SDS011;6174;49.058;8.524;2024-02-23T07:21:56;2.87;;;0.90;;
12222;SDS011;6174;49.058;8.524;2024-02-23T07:24:23;2.70;;;1.10;;
12222;SDS011;6174;49.058;8.524;2024-02-23T07:26:51;4.63;;;1.70;;
12222;SDS011;6174;49.058;8.524;2024-02-23T07:29:18;1.67;;;0.60;;
12222;SDS011;6174;49.058;8.524;2024-02-23T07:31:45;1.10;;;1.00;;
12222;SDS011;6174;49.058;8.524;2024-02-23T07:34:12;2.87;;;1.70;;
12222;SDS011;6174;49.058;8.524;2024-02-23T07:36:38;1.43;;;1.10;;
12222;SDS011;6174;49.058;8.524;2024-02-23T07:39:05;2.80;;;1.80;;
12222;SDS011;6174;49.058;8.524;2024-02-23T07:41:32;2.17;;;1.87;;
12222;SDS011;6174;49.058;8.524;2024-02-23T07:44:00;0.97;;;0.80;;
12222;SDS011;6174;49.058;8.524;2024-02-23T07:46:27;3.17;;;2.10;;
12222;SDS011;6174;49.058;8.524;2024-02-23T07:48:54;1.73;;;1.53;;
12222;SDS011;6174;49.058;8.524;2024-02-23T07:51:20;1.73;;;1.23;;
12222;SDS011;6174;49.058;8.524;2024-02-23T07:53:47;4.07;;;2.50;;
12222;SDS011;6174;49.058;8.524;2024-02-23T07:56:14;2.87;;;2.50;;
12222;SDS011;6174;49.058;8.524;2024-02-23T07:58:42;2.63;;;1.30;;
12222;SDS011;6174;49.058;8.524;2024-02-23T08:01:10;2.63;;;1.27;;
12222;SDS011;6174;49.058;8.524;2024-02-23T08:03:36;1.87;;;1.10;;
12222;SDS011;6174;49.058;8.524;2024-02-23T08:06:03;1.77;;;1.30;;
12222;SDS011;6174;49.058;8.524;2024-02-23T08:08:30;3.27;;;1.73;;
12222;SDS011;6174;49.058;8.524;2024-02-23T08:10:59;1.97;;;1.50;;
12222;SDS011;6174;49.058;8.524;2024-02-23T08:13:26;2.77;;;2.20;;
12222;SDS011;6174;49.058;8.524;2024-02-23T08:15:53;3.23;;;2.00;;
12222;SDS011;6174;49.058;8.524;2024-02-23T08:18:21;3.43;;;2.10;;
12222;SDS011;6174;49.058;8.524;2024-02-23T08:20:48;2.50;;;1.20;;
12222;SDS011;6174;49.058;8.524;2024-02-23T08:23:17;1.67;;;1.30;;
12222;SDS011;6174;49.058;8.524;2024-02-23T08:25:45;2.20;;;1.00;;
12222;SDS011;6174;49.058;8.524;2024-02-23T08:28:13;3.30;;;1.40;;
12222;SDS011;6174;49.058;8.524;2024-02-23T08:30:39;1.27;;;0.80;;
12222;SDS011;6174;49.058;8.524;2024-02-23T08:33:06;4.07;;;1.10;;
12222;SDS011;6174;49.058;8.524;2024-02-23T08:35:36;1.00;;;0.70;;
12222;SDS011;6174;49.058;8.524;2024-02-23T08:38:03;2.37;;;1.03;;
12222;SDS011;6174;49.058;8.524;2024-02-23T08:40:30;1.73;;;0.87;;
12222;SDS011;6174;49.058;8.524;2024-02-23T08:42:56;2.60;;;1.43;;
12222;SDS011;6174;49.058;8.524;2024-02-23T08:45:23;1.90;;;0.93;;
12222;SDS011;6174;49.058;8.524;2024-02-23T08:47:50;2.00;;;1.00;;
12222;SDS011;6174;49.058;8.524;2024-02-23T08:50:16;2.50;;;1.27;;
12222;SDS011;6174;49.058;8.524;2024-02-23T08:52:44;2.00;;;1.10;;
12222;SDS011;6174;49.058;8.524;2024-02-23T08:55:11;1.87;;;0.87;;
12222;SDS011;6174;49.058;8.524;2024-02-23T08:57:38;1.40;;;0.90;;
12222;SDS011;6174;49.058;8.524;2024-02-23T09:00:13;2.13;;;0.63;;
12222;SDS011;6174;49.058;8.524;2024-02-23T09:02:40;2.13;;;0.83;;
12222;SDS011;6174;49.058;8.524;2024-02-23T09:05:08;2.57;;;0.80;;
12222;SDS011;6174;49.058;8.524;2024-02-23T09:07:35;1.30;;;1.17;;
12222;SDS011;6174;49.058;8.524;2024-02-23T09:10:01;1.70;;;1.00;;
12222;SDS011;6174;49.058;8.524;2024-02-23T09:12:30;5.37;;;1.70;;
12222;SDS011;6174;49.058;8.524;2024-02-23T09:14:56;2.00;;;0.80;;
12222;SDS011;6174;49.058;8.524;2024-02-23T09:17:24;3.17;;;1.23;;
12222;SDS011;6174;49.058;8.524;2024-02-23T09:19:51;1.63;;;1.10;;
12222;SDS011;6174;49.058;8.524;2024-02-23T09:22:18;2.77;;;1.10;;
12222;SDS011;6174;49.058;8.524;2024-02-23T09:24:45;2.67;;;1.10;;
12222;SDS011;6174;49.058;8.524;2024-02-23T09:27:11;2.83;;;1.40;;
12222;SDS011;6174;49.058;8.524;2024-02-23T09:29:40;2.87;;;1.43;;
12222;SDS011;6174;49.058;8.524;2024-02-23T09:32:07;2.87;;;1.30;;
12222;SDS011;6174;49.058;8.524;2024-02-23T09:34:35;1.90;;;1.00;;
12222;SDS011;6174;49.058;8.524;2024-02-23T09:37:02;1.47;;;0.87;;
12222;SDS011;6174;49.058;8.524;2024-02-23T09:39:28;2.63;;;1.10;;
12222;SDS011;6174;49.058;8.524;2024-02-23T09:41:56;2.37;;;0.97;;
12222;SDS011;6174;49.058;8.524;2024-02-23T09:44:23;1.77;;;1.00;;
12222;SDS011;6174;49.058;8.524;2024-02-23T09:46:49;4.00;;;1.30;;
12222;SDS011;6174;49.058;8.524;2024-02-23T09:49:16;2.80;;;1.07;;
12222;SDS011;6174;49.058;8.524;2024-02-23T09:51:44;1.97;;;1.13;;
12222;SDS011;6174;49.058;8.524;2024-02-23T09:54:11;2.27;;;1.00;;
12222;SDS011;6174;49.058;8.524;2024-02-23T09:56:38;3.23;;;1.10;;
12222;SDS011;6174;49.058;8.524;2024-02-23T09:59:06;3.60;;;1.37;;
12222;SDS011;6174;49.058;8.524;2024-02-23T10:01:33;3.10;;;1.20;;
12222;SDS011;6174;49.058;8.524;2024-02-23T10:04:01;3.60;;;1.20;;
12222;SDS011;6174;49.058;8.524;2024-02-23T10:06:29;3.47;;;1.70;;
12222;SDS011;6174;49.058;8.524;2024-02-23T10:08:57;3.13;;;1.40;;
12222;SDS011;6174;49.058;8.524;2024-02-23T10:11:24;3.20;;;1.43;;
12222;SDS011;6174;49.058;8.524;2024-02-23T10:13:51;3.53;;;1.40;;
12222;SDS011;6174;49.058;8.524;2024-02-23T10:16:18;3.43;;;1.30;;
12222;SDS011;6174;49.058;8.524;2024-02-23T10:18:46;3.17;;;1.07;;
12222;SDS011;6174;49.058;8.524;2024-02-23T10:21:13;2.17;;;1.33;;
12222;SDS011;6174;49.058;8.524;2024-02-23T10:23:40;1.97;;;1.00;;
12222;SDS011;6174;49.058;8.524;2024-02-23T10:26:08;3.60;;;1.00;;
12222;SDS011;6174;49.058;8.524;2024-02-23T10:28:35;3.30;;;1.00;;
12222;SDS011;6174;49.058;8.524;2024-02-23T10:31:04;1.87;;;1.10;;
12222;SDS011;6174;49.058;8.524;2024-02-23T10:33:31;4.70;;;1.40;;
12222;SDS011;6174;49.058;8.524;2024-02-23T10:35:58;3.37;;;1.30;;
12222;SDS011;6174;49.058;8.524;2024-02-23T10:38:27;2.80;;;1.30;;
12222;SDS011;6174;49.058;8.524;2024-02-23T10:40:58;4.50;;;1.30;;
12222;SDS011;6174;49.058;8.524;2024-02-23T10:43:29;3.27;;;1.20;;
12222;SDS011;6174;49.058;8.524;2024-02-23T10:45:59;2.60;;;0.93;;
12222;SDS011;6174;49.058;8.524;2024-02-23T10:48:27;2.37;;;1.00;;
12222;SDS011;6174;49.058;8.524;2024-02-23T10:50:55;2.67;;;1.13;;
12222;SDS011;6174;49.058;8.524;2024-02-23T10:53:23;2.73;;;1.17;;
12222;SDS011;6174;49.058;8.524;2024-02-23T10:55:51;2.10;;;1.10;;
12222;SDS011;6174;49.058;8.524;2024-02-23T10:58:22;1.87;;;1.20;;
12222;SDS011;6174;49.058;8.524;2024-02-23T11:00:50;1.93;;;1.03;;
12222;SDS011;6174;49.058;8.524;2024-02-23T11:03:17;2.17;;;1.00;;
12222;SDS011;6174;49.058;8.524;2024-02-23T11:05:48;2.97;;;1.30;;
12222;SDS011;6174;49.058;8.524;2024-02-23T11:08:17;3.07;;;1.47;;
12222;SDS011;6174;49.058;8.524;2024-02-23T11:10:48;2.90;;;1.20;;
12222;SDS011;6174;49.058;8.524;2024-02-23T11:13:16;3.03;;;1.20;;
12222;SDS011;6174;49.058;8.524;2024-02-23T11:15:43;3.93;;;1.50;;
12222;SDS011;6174;49.058;8.524;2024-02-23T11:18:23;1.57;;;1.17;;
12222;SDS011;6174;49.058;8.524;2024-02-23T11:20:53;3.53;;;1.50;;
12222;SDS011;6174;49.058;8.524;2024-02-23T11:23:21;1.90;;;0.93;;
12222;SDS011;6174;49.058;8.524;2024-02-23T11:26:06;2.90;;;1.20;;
12222;SDS011;6174;49.058;8.524;2024-02-23T11:28:41;4.23;;;1.37;;
12222;SDS011;6174;49.058;8.524;2024-02-23T11:31:11;3.20;;;1.60;;
12222;SDS011;6174;49.058;8.524;2024-02-23T11:33:40;4.90;;;1.37;;
12222;SDS011;6174;49.058;8.524;2024-02-23T11:36:13;2.67;;;1.00;;
12222;SDS011;6174;49.058;8.524;2024-02-23T11:38:48;1.67;;;0.90;;
12222;SDS011;6174;49.058;8.524;2024-02-23T11:41:21;1.37;;;1.00;;
12222;SDS011;6174;49.058;8.524;2024-02-23T11:43:50;2.83;;;1.20;;
12222;SDS011;6174;49.058;8.524;2024-02-23T11:46:17;2.57;;;0.90;;
12222;SDS011;6174;49.058;8.524;2024-02-23T11:48:46;2.73;;;1.00;;
12222;SDS011;6174;49.058;8.524;2024-02-23T11:51:18;2.43;;;1.30;;
12222;SDS011;6174;49.058;8.524;2024-02-23T11:53:45;4.73;;;1.17;;
12222;SDS011;6174;49.058;8.524;2024-02-23T11:56:12;2.37;;;1.00;;
12222;SDS011;6174;49.058;8.524;2024-02-23T11:58:40;7.20;;;1.47;;
12222;SDS011;6174;49.058;8.524;2024-02-23T12:01:07;3.03;;;1.50;;
12222;SDS011;6174;49.058;8.524;2024-02-23T12:03:34;2.97;;;1.00;;
12222;SDS011;6174;49.058;8.524;2024-02-23T12:06:04;4.10;;;1.40;;
12222;SDS011;6174;49.058;8.524;2024-02-23T12:08:31;2.10;;;1.17;;
12222;SDS011;6174;49.058;8.524;2024-02-23T12:11:03;3.53;;;1.13;;
12222;SDS011;6174;49.058;8.524;2024-02-23T12:13:30;1.80;;;0.90;;
12222;SDS011;6174;49.058;8.524;2024-02-23T12:15:57;3.70;;;1.40;;
12222;SDS011;6174;49.058;8.524;2024-02-23T12:18:24;3.43;;;1.77;;
12222;SDS011;6174;49.058;8.524;2024-02-23T12:20:51;1.57;;;1.20;;
12222;SDS011;6174;49.058;8.524;2024-02-23T12:23:19;1.90;;;1.50;;
12222;SDS011;6174;49.058;8.524;2024-02-23T12:25:53;3.93;;;1.10;;
12222;SDS011;6174;49.058;8.524;2024-02-23T12:28:22;2.67;;;1.10;;
12222;SDS011;6174;49.058;8.524;2024-02-23T12:30:58;2.57;;;1.10;;
12222;SDS011;6174;49.058;8.524;2024-02-23T12:33:26;2.30;;;1.17;;
12222;SDS011;6174;49.058;8.524;2024-02-23T12:35:54;2.17;;;1.20;;
12222;SDS011;6174;49.058;8.524;2024-02-23T12:38:23;3.60;;;1.10;;
12222;SDS011;6174;49.058;8.524;2024-02-23T12:40:50;1.97;;;1.03;;
12222;SDS011;6174;49.058;8.524;2024-02-23T12:43:17;2.07;;;1.20;;
12222;SDS011;6174;49.058;8.524;2024-02-23T12:45:46;2.37;;;1.20;;
12222;SDS011;6174;49.058;8.524;2024-02-23T12:48:15;3.37;;;1.33;;
12222;SDS011;6174;49.058;8.524;2024-02-23T12:50:42;3.77;;;1.50;;
12222;SDS011;6174;49.058;8.524;2024-02-23T12:53:09;3.63;;;1.47;;
12222;SDS011;6174;49.058;8.524;2024-02-23T12:55:39;3.47;;;1.17;;
12222;SDS011;6174;49.058;8.524;2024-02-23T12:58:06;2.77;;;1.20;;
12222;SDS011;6174;49.058;8.524;2024-02-23T13:00:32;2.27;;;1.20;;
12222;SDS011;6174;49.058;8.524;2024-02-23T13:02:59;1.90;;;1.10;;
12222;SDS011;6174;49.058;8.524;2024-02-23T13:05:26;2.87;;;1.13;;
12222;SDS011;6174;49.058;8.524;2024-02-23T13:07:53;2.10;;;1.40;;
12222;SDS011;6174;49.058;8.524;2024-02-23T13:10:19;3.10;;;1.20;;
12222;SDS011;6174;49.058;8.524;2024-02-23T13:12:47;3.80;;;1.10;;
12222;SDS011;6174;49.058;8.524;2024-02-23T13:15:14;3.07;;;1.30;;
12222;SDS011;6174;49.058;8.524;2024-02-23T13:17:41;1.73;;;0.93;;
12222;SDS011;6174;49.058;8.524;2024-02-23T13:20:08;3.37;;;1.20;;
12222;SDS011;6174;49.058;8.524;2024-02-23T13:22:37;4.00;;;1.20;;
12222;SDS011;6174;49.058;8.524;2024-02-23T13:25:04;4.67;;;1.30;;
12222;SDS011;6174;49.058;8.524;2024-02-23T13:27:32;2.07;;;1.00;;
12222;SDS011;6174;49.058;8.524;2024-02-23T13:30:00;2.80;;;1.40;;
12222;SDS011;6174;49.058;8.524;2024-02-23T13:32:28;2.43;;;1.10;;
12222;SDS011;6174;49.058;8.524;2024-02-23T13:34:54;2.43;;;1.07;;
12222;SDS011;6174;49.058;8.524;2024-02-23T13:37:21;1.50;;;0.90;;
12222;SDS011;6174;49.058;8.524;2024-02-23T13:39:48;3.73;;;1.40;;
12222;SDS011;6174;49.058;8.524;2024-02-23T13:42:15;2.47;;;1.07;;
12222;SDS011;6174;49.058;8.524;2024-02-23T13:44:41;1.13;;;0.90;;
12222;SDS011;6174;49.058;8.524;2024-02-23T13:47:09;2.43;;;0.93;;
12222;SDS011;6174;49.058;8.524;2024-02-23T13:49:38;3.30;;;1.30;;
12222;SDS011;6174;49.058;8.524;2024-02-23T13:52:04;2.03;;;0.90;;
12222;SDS011;6174;49.058;8.524;2024-02-23T13:54:31;2.03;;;1.20;;
12222;SDS011;6174;49.058;8.524;2024-02-23T13:56:58;3.10;;;1.20;;
12222;SDS011;6174;49.058;8.524;2024-02-23T13:59:25;1.00;;;0.93;;
12222;SDS011;6174;49.058;8.524;2024-02-23T14:01:52;2.27;;;0.90;;
12222;SDS011;6174;49.058;8.524;2024-02-23T14:04:20;3.10;;;1.07;;
12222;SDS011;6174;49.058;8.524;2024-02-23T14:06:47;3.40;;;1.13;;
12222;SDS011;6174;49.058;8.524;2024-02-23T14:09:13;2.50;;;1.17;;
12222;SDS011;6174;49.058;8.524;2024-02-23T14:11:40;2.33;;;0.90;;
12222;SDS011;6174;49.058;8.524;2024-02-23T14:14:07;2.13;;;0.93;;
12222;SDS011;6174;49.058;8.524;2024-02-23T14:16:34;2.73;;;1.20;;
12222;SDS011;6174;49.058;8.524;2024-02-23T14:19:01;4.23;;;1.23;;
12222;SDS011;6174;49.058;8.524;2024-02-23T14:21:29;2.83;;;1.33;;
12222;SDS011;6174;49.058;8.524;2024-02-23T14:23:55;3.10;;;1.20;;
12222;SDS011;6174;49.058;8.524;2024-02-23T14:26:21;2.20;;;1.27;;
12222;SDS011;6174;49.058;8.524;2024-02-23T14:28:48;1.93;;;0.90;;
12222;SDS011;6174;49.058;8.524;2024-02-23T14:31:15;2.30;;;1.50;;
12222;SDS011;6174;49.058;8.524;2024-02-23T14:33:42;3.67;;;1.40;;
12222;SDS011;6174;49.058;8.524;2024-02-23T14:36:09;3.80;;;1.20;;
12222;SDS011;6174;49.058;8.524;2024-02-23T14:38:37;2.07;;;1.00;;
12222;SDS011;6174;49.058;8.524;2024-02-23T14:41:04;1.10;;;0.80;;
12222;SDS011;6174;49.058;8.524;2024-02-23T14:43:34;1.10;;;1.00;;
12222;SDS011;6174;49.058;8.524;2024-02-23T14:46:00;1.83;;;1.00;;
12222;SDS011;6174;49.058;8.524;2024-02-23T14:48:27;3.83;;;1.30;;
12222;SDS011;6174;49.058;8.524;2024-02-23T14:50:54;2.73;;;1.10;;
12222;SDS011;6174;49.058;8.524;2024-02-23T14:53:22;2.10;;;1.00;;
12222;SDS011;6174;49.058;8.524;2024-02-23T14:55:51;3.37;;;1.20;;
12222;SDS011;6174;49.058;8.524;2024-02-23T14:58:18;1.10;;;0.70;;
12222;SDS011;6174;49.058;8.524;2024-02-23T15:00:45;2.43;;;0.93;;
12222;SDS011;6174;49.058;8.524;2024-02-23T15:03:12;1.07;;;0.73;;
12222;SDS011;6174;49.058;8.524;2024-02-23T15:05:39;1.30;;;1.07;;
12222;SDS011;6174;49.058;8.524;2024-02-23T15:08:06;1.57;;;1.10;;
12222;SDS011;6174;49.058;8.524;2024-02-23T15:10:33;1.40;;;1.27;;
12222;SDS011;6174;49.058;8.524;2024-02-23T15:13:01;1.13;;;0.83;;
12222;SDS011;6174;49.058;8.524;2024-02-23T15:15:28;1.80;;;0.80;;
12222;SDS011;6174;49.058;8.524;2024-02-23T15:17:55;1.50;;;1.10;;
12222;SDS011;6174;49.058;8.524;2024-02-23T15:20:22;2.30;;;1.03;;
12222;SDS011;6174;49.058;8.524;2024-02-23T15:22:49;2.23;;;1.00;;
12222;SDS011;6174;49.058;8.524;2024-02-23T15:25:16;1.37;;;0.87;;
12222;SDS011;6174;49.058;8.524;2024-02-23T15:27:42;2.03;;;1.37;;
12222;SDS011;6174;49.058;8.524;2024-02-23T15:30:11;3.30;;;1.50;;
12222;SDS011;6174;49.058;8.524;2024-02-23T15:32:37;1.67;;;1.10;;
12222;SDS011;6174;49.058;8.524;2024-02-23T15:35:05;1.90;;;1.00;;
12222;SDS011;6174;49.058;8.524;2024-02-23T15:37:32;2.50;;;1.13;;
12222;SDS011;6174;49.058;8.524;2024-02-23T15:39:59;2.27;;;0.90;;
12222;SDS011;6174;49.058;8.524;2024-02-23T15:42:26;2.03;;;1.13;;
12222;SDS011;6174;49.058;8.524;2024-02-23T15:44:52;1.53;;;1.10;;
12222;SDS011;6174;49.058;8.524;2024-02-23T15:47:21;2.10;;;1.00;;
12222;SDS011;6174;49.058;8.524;2024-02-23T15:49:48;3.50;;;1.30;;
12222;SDS011;6174;49.058;8.524;2024-02-23T15:52:14;1.60;;;1.10;;
12222;SDS011;6174;49.058;8.524;2024-02-23T15:54:41;2.03;;;1.70;;
12222;SDS011;6174;49.058;8.524;2024-02-23T15:57:09;3.10;;;1.70;;
12222;SDS011;6174;49.058;8.524;2024-02-23T15:59:35;1.40;;;1.07;;
12222;SDS011;6174;49.058;8.524;2024-02-23T16:02:02;3.50;;;1.67;;
12222;SDS011;6174;49.058;8.524;2024-02-23T16:04:31;2.00;;;1.20;;
12222;SDS011;6174;49.058;8.524;2024-02-23T16:06:57;1.70;;;0.90;;
12222;SDS011;6174;49.058;8.524;2024-02-23T16:09:24;2.80;;;1.60;;
12222;SDS011;6174;49.058;8.524;2024-02-23T16:11:51;2.83;;;1.53;;
12222;SDS011;6174;49.058;8.524;2024-02-23T16:14:18;3.20;;;1.87;;
12222;SDS011;6174;49.058;8.524;2024-02-23T16:16:44;3.70;;;2.60;;
12222;SDS011;6174;49.058;8.524;2024-02-23T16:19:13;3.00;;;1.90;;
12222;SDS011;6174;49.058;8.524;2024-02-23T16:21:41;2.70;;;1.93;;
12222;SDS011;6174;49.058;8.524;2024-02-23T16:24:08;3.67;;;1.70;;
12222;SDS011;6174;49.058;8.524;2024-02-23T16:26:35;2.20;;;1.40;;
12222;SDS011;6174;49.058;8.524;2024-02-23T16:29:03;1.83;;;1.17;;
12222;SDS011;6174;49.058;8.524;2024-02-23T16:31:30;1.63;;;1.03;;
12222;SDS011;6174;49.058;8.524;2024-02-23T16:33:58;3.30;;;2.43;;
12222;SDS011;6174;49.058;8.524;2024-02-23T16:36:24;3.63;;;1.70;;
12222;SDS011;6174;49.058;8.524;2024-02-23T16:38:52;2.17;;;1.10;;
12222;SDS011;6174;49.058;8.524;2024-02-23T16:41:19;2.67;;;2.30;;
12222;SDS011;6174;49.058;8.524;2024-02-23T16:43:46;1.97;;;1.40;;
12222;SDS011;6174;49.058;8.524;2024-02-23T16:46:13;2.33;;;1.53;;
12222;SDS011;6174;49.058;8.524;2024-02-23T16:48:40;4.00;;;2.40;;
12222;SDS011;6174;49.058;8.524;2024-02-23T16:51:07;13.40;;;7.47;;
12222;SDS011;6174;49.058;8.524;2024-02-23T16:53:33;13.17;;;8.30;;
12222;SDS011;6174;49.058;8.524;2024-02-23T16:56:02;8.67;;;4.83;;
12222;SDS011;6174;49.058;8.524;2024-02-23T16:58:29;6.33;;;3.20;;
12222;SDS011;6174;49.058;8.524;2024-02-23T17:00:59;11.97;;;6.60;;
12222;SDS011;6174;49.058;8.524;2024-02-23T17:03:26;13.63;;;6.90;;
12222;SDS011;6174;49.058;8.524;2024-02-23T17:05:53;10.23;;;4.67;;
12222;SDS011;6174;49.058;8.524;2024-02-23T17:08:19;8.00;;;4.20;;
12222;SDS011;6174;49.058;8.524;2024-02-23T17:10:46;3.00;;;2.40;;
12222;SDS011;6174;49.058;8.524;2024-02-23T17:13:14;11.87;;;6.20;;
12222;SDS011;6174;49.058;8.524;2024-02-23T17:15:41;16.70;;;8.33;;
12222;SDS011;6174;49.058;8.524;2024-02-23T17:18:08;39.30;;;16.30;;
12222;SDS011;6174;49.058;8.524;2024-02-23T17:20:35;13.80;;;5.70;;
12222;SDS011;6174;49.058;8.524;2024-02-23T17:23:02;8.73;;;5.67;;
12222;SDS011;6174;49.058;8.524;2024-02-23T17:25:30;11.87;;;7.17;;
12222;SDS011;6174;49.058;8.524;2024-02-23T17:52:06;5.00;;;3.20;;
12222;SDS011;6174;49.058;8.524;2024-02-23T17:54:40;6.30;;;3.90;;
12222;SDS011;6174;49.058;8.524;2024-02-23T17:57:14;6.37;;;4.10;;
12222;SDS011;6174;49.058;8.524;2024-02-23T17:59:59;4.23;;;3.43;;
12222;SDS011;6174;49.058;8.524;2024-02-23T18:02:46;5.90;;;3.60;;
12222;SDS011;6174;49.058;8.524;2024-02-23T18:05:40;4.43;;;3.47;;
12222;SDS011;6174;49.058;8.524;2024-02-23T18:08:20;4.17;;;3.20;;
12222;SDS011;6174;49.058;8.524;2024-02-23T18:10:53;3.60;;;2.90;;
12222;SDS011;6174;49.058;8.524;2024-02-23T18:13:24;3.67;;;3.00;;
12222;SDS011;6174;49.058;8.524;2024-02-23T18:15:51;4.47;;;2.67;;
12222;SDS011;6174;49.058;8.524;2024-02-23T18:18:24;3.37;;;2.83;;
12222;SDS011;6174;49.058;8.524;2024-02-23T18:20:52;3.73;;;2.43;;
12222;SDS011;6174;49.058;8.524;2024-02-23T18:23:25;2.77;;;2.37;;
12222;SDS011;6174;49.058;8.524;2024-02-23T18:25:54;3.40;;;2.63;;
12222;SDS011;6174;49.058;8.524;2024-02-23T18:28:29;5.23;;;2.47;;
12222;SDS011;6174;49.058;8.524;2024-02-23T18:30:57;3.57;;;2.30;;
12222;SDS011;6174;49.058;8.524;2024-02-23T18:33:41;3.67;;;2.60;;
12222;SDS011;6174;49.058;8.524;2024-02-23T18:36:08;4.70;;;2.33;;
12222;SDS011;6174;49.058;8.524;2024-02-23T18:38:40;4.57;;;2.70;;
12222;SDS011;6174;49.058;8.524;2024-02-23T18:41:08;3.93;;;3.10;;
12222;SDS011;6174;49.058;8.524;2024-02-23T18:43:40;3.33;;;2.70;;
12222;SDS011;6174;49.058;8.524;2024-02-23T18:46:11;4.13;;;2.50;;
12222;SDS011;6174;49.058;8.524;2024-02-23T18:48:51;3.60;;;2.30;;
12222;SDS011;6174;49.058;8.524;2024-02-23T18:51:20;3.93;;;2.10;;
12222;SDS011;6174;49.058;8.524;2024-02-23T18:53:54;3.77;;;2.20;;
12222;SDS011;6174;49.058;8.524;2024-02-23T18:56:24;5.03;;;2.37;;
12222;SDS011;6174;49.058;8.524;2024-02-23T18:58:51;4.77;;;2.87;;
12222;SDS011;6174;49.058;8.524;2024-02-23T19:01:22;4.67;;;3.20;;
12222;SDS011;6174;49.058;8.524;2024-02-23T19:03:49;3.63;;;2.90;;
12222;SDS011;6174;49.058;8.524;2024-02-23T19:06:16;4.70;;;2.60;;
12222;SDS011;6174;49.058;8.524;2024-02-23T19:08:43;2.87;;;2.40;;
12222;SDS011;6174;49.058;8.524;2024-02-23T19:11:14;3.80;;;2.27;;
12222;SDS011;6174;49.058;8.524;2024-02-23T19:13:41;2.60;;;2.07;;
12222;SDS011;6174;49.058;8.524;2024-02-23T19:16:11;3.03;;;1.90;;
12222;SDS011;6174;49.058;8.524;2024-02-23T19:18:47;2.60;;;1.97;;
12222;SDS011;6174;49.058;8.524;2024-02-23T19:21:14;3.80;;;2.37;;
12222;SDS011;6174;49.058;8.524;2024-02-23T19:23:42;2.90;;;2.20;;
12222;SDS011;6174;49.058;8.524;2024-02-23T19:26:09;3.23;;;2.73;;
12222;SDS011;6174;49.058;8.524;2024-02-23T19:28:40;4.20;;;2.03;;
12222;SDS011;6174;49.058;8.524;2024-02-23T19:31:08;5.73;;;2.13;;
12222;SDS011;6174;49.058;8.524;2024-02-23T19:33:35;4.73;;;2.07;;
12222;SDS011;6174;49.058;8.524;2024-02-23T19:36:02;3.87;;;2.27;;
12222;SDS011;6174;49.058;8.524;2024-02-23T19:38:30;4.27;;;2.17;;
12222;SDS011;6174;49.058;8.524;2024-02-23T19:41:02;2.63;;;1.67;;
12222;SDS011;6174;49.058;8.524;2024-02-23T19:43:38;2.80;;;1.80;;
12222;SDS011;6174;49.058;8.524;2024-02-23T19:46:06;4.33;;;2.17;;
12222;SDS011;6174;49.058;8.524;2024-02-23T19:48:35;3.13;;;1.67;;
12222;SDS011;6174;49.058;8.524;2024-02-23T19:51:03;2.67;;;1.67;;
12222;SDS011;6174;49.058;8.524;2024-02-23T19:53:32;4.00;;;1.83;;
12222;SDS011;6174;49.058;8.524;2024-02-23T19:55:59;4.37;;;2.83;;
12222;SDS011;6174;49.058;8.524;2024-02-23T19:58:26;3.20;;;1.90;;
12222;SDS011;6174;49.058;8.524;2024-02-23T20:00:58;4.17;;;2.40;;
12222;SDS011;6174;49.058;8.524;2024-02-23T20:03:26;3.73;;;2.27;;
12222;SDS011;6174;49.058;8.524;2024-02-23T20:05:55;3.53;;;2.00;;
12222;SDS011;6174;49.058;8.524;2024-02-23T20:08:22;2.57;;;1.80;;
12222;SDS011;6174;49.058;8.524;2024-02-23T20:10:50;3.03;;;1.97;;
12222;SDS011;6174;49.058;8.524;2024-02-23T20:19:47;2.40;;;1.67;;
12222;SDS011;6174;49.058;8.524;2024-02-23T20:22:25;2.23;;;1.73;;
12222;SDS011;6174;49.058;8.524;2024-02-23T20:24:58;3.23;;;1.73;;
12222;SDS011;6174;49.058;8.524;2024-02-23T20:27:30;2.73;;;1.83;;
12222;SDS011;6174;49.058;8.524;2024-02-23T20:29:59;2.70;;;1.90;;
12222;SDS011;6174;49.058;8.524;2024-02-23T20:32:26;2.20;;;1.70;;
12222;SDS011;6174;49.058;8.524;2024-02-23T20:35:04;4.13;;;2.30;;
12222;SDS011;6174;49.058;8.524;2024-02-23T20:40:50;3.40;;;2.07;;
12222;SDS011;6174;49.058;8.524;2024-02-23T20:43:21;4.33;;;2.07;;
12222;SDS011;6174;49.058;8.524;2024-02-23T20:45:48;2.30;;;1.80;;
12222;SDS011;6174;49.058;8.524;2024-02-23T20:48:28;4.37;;;1.73;;
12222;SDS011;6174;49.058;8.524;2024-02-23T20:51:06;2.90;;;2.07;;
12222;SDS011;6174;49.058;8.524;2024-02-23T20:56:29;2.60;;;2.00;;
12222;SDS011;6174;49.058;8.524;2024-02-23T20:59:06;2.25;;;1.95;;
12222;SDS011;6174;49.058;8.524;2024-02-23T21:10:59;3.17;;;1.87;;
12222;SDS011;6174;49.058;8.524;2024-02-23T21:16:19;2.53;;;1.77;;
12222;SDS011;6174;49.058;8.524;2024-02-23T21:19:35;2.23;;;1.87;;
12222;SDS011;6174;49.058;8.524;2024-02-23T21:22:01;2.67;;;1.77;;
12222;SDS011;6174;49.058;8.524;2024-02-23T21:24:28;2.17;;;1.90;;
12222;SDS011;6174;49.058;8.524;2024-02-23T21:26:58;2.60;;;1.60;;
12222;SDS011;6174;49.058;8.524;2024-02-23T21:29:25;2.67;;;1.97;;
12222;SDS011;6174;49.058;8.524;2024-02-23T21:31:52;2.73;;;1.57;;
12222;SDS011;6174;49.058;8.524;2024-02-23T21:34:20;3.83;;;1.60;;
12222;SDS011;6174;49.058;8.524;2024-02-23T21:36:46;2.40;;;1.60;;
12222;SDS011;6174;49.058;8.524;2024-02-23T21:39:14;2.47;;;1.83;;
12222;SDS011;6174;49.058;8.524;2024-02-23T21:41:40;4.30;;;2.00;;
12222;SDS011;6174;49.058;8.524;2024-02-23T21:44:09;6.83;;;5.53;;
12222;SDS011;6174;49.058;8.524;2024-02-23T21:46:35;2.50;;;1.87;;
12222;SDS011;6174;49.058;8.524;2024-02-23T21:49:02;3.20;;;1.60;;
12222;SDS011;6174;49.058;8.524;2024-02-23T21:51:29;2.40;;;2.00;;
12222;SDS011;6174;49.058;8.524;2024-02-23T21:53:56;2.47;;;2.10;;
12222;SDS011;6174;49.058;8.524;2024-02-23T21:56:23;3.63;;;2.47;;
12222;SDS011;6174;49.058;8.524;2024-02-23T21:58:50;3.00;;;2.80;;